sensor_id;sensor_type;location;lat;lon;timestamp;P1;durP1;ratioP1;P2;durP2;ratioP2
22778;SDS011;11556;51.194;3.800;2022-09-02T00:01:41;3.50;;;1.90;;
22778;SDS011;11556;51.194;3.800;2022-09-02T00:04:10;5.13;;;2.20;;
22778;SDS011;11556;51.194;3.800;2022-09-02T00:06:39;5.50;;;1.90;;
22778;SDS011;11556;51.194;3.800;2022-09-02T00:09:06;6.45;;;2.20;;
22778;SDS011;11556;51.194;3.800;2022-09-02T00:11:33;4.72;;;2.10;;
22778;SDS011;11556;51.194;3.800;2022-09-02T00:14:02;4.88;;;2.42;;
22778;SDS011;11556;51.194;3.800;2022-09-02T00:16:29;4.40;;;2.30;;
22778;SDS011;11556;51.194;3.800;2022-09-02T00:18:57;6.22;;;2.65;;
22778;SDS011;11556;51.194;3.800;2022-09-02T00:21:23;3.83;;;2.30;;
22778;SDS011;11556;51.194;3.800;2022-09-02T00:23:49;4.15;;;2.35;;
22778;SDS011;11556;51.194;3.800;2022-09-02T00:26:16;3.30;;;2.60;;
22778;SDS011;11556;51.194;3.800;2022-09-02T00:28:42;6.65;;;2.22;;
22778;SDS011;11556;51.194;3.800;2022-09-02T00:31:07;4.15;;;2.70;;
22778;SDS011;11556;51.194;3.800;2022-09-02T00:33:33;5.65;;;2.00;;
22778;SDS011;11556;51.194;3.800;2022-09-02T00:36:00;10.10;;;2.40;;
22778;SDS011;11556;51.194;3.800;2022-09-02T00:38:27;4.55;;;2.47;;
22778;SDS011;11556;51.194;3.800;2022-09-02T00:40:55;6.00;;;2.67;;
22778;SDS011;11556;51.194;3.800;2022-09-02T00:46:21;6.07;;;2.65;;
22778;SDS011;11556;51.194;3.800;2022-09-02T00:48:56;6.20;;;2.47;;
22778;SDS011;11556;51.194;3.800;2022-09-02T00:52:01;8.68;;;2.50;;
22778;SDS011;11556;51.194;3.800;2022-09-02T00:54:28;6.03;;;2.90;;
22778;SDS011;11556;51.194;3.800;2022-09-02T00:56:55;6.00;;;2.45;;
22778;SDS011;11556;51.194;3.800;2022-09-02T00:59:23;4.22;;;2.53;;
22778;SDS011;11556;51.194;3.800;2022-09-02T01:01:54;9.77;;;3.13;;
22778;SDS011;11556;51.194;3.800;2022-09-02T01:04:19;7.75;;;2.65;;
22778;SDS011;11556;51.194;3.800;2022-09-02T01:06:45;7.28;;;2.80;;
22778;SDS011;11556;51.194;3.800;2022-09-02T01:09:13;10.65;;;3.85;;
22778;SDS011;11556;51.194;3.800;2022-09-02T01:11:41;11.40;;;4.47;;
22778;SDS011;11556;51.194;3.800;2022-09-02T01:14:11;7.65;;;3.28;;
22778;SDS011;11556;51.194;3.800;2022-09-02T01:16:39;7.70;;;3.13;;
22778;SDS011;11556;51.194;3.800;2022-09-02T01:19:09;6.93;;;3.55;;
22778;SDS011;11556;51.194;3.800;2022-09-02T01:21:52;6.35;;;2.83;;
22778;SDS011;11556;51.194;3.800;2022-09-02T01:24:19;3.63;;;2.92;;
22778;SDS011;11556;51.194;3.800;2022-09-02T01:26:47;11.85;;;3.00;;
22778;SDS011;11556;51.194;3.800;2022-09-02T01:29:15;10.52;;;3.17;;
22778;SDS011;11556;51.194;3.800;2022-09-02T01:31:41;4.55;;;2.90;;
22778;SDS011;11556;51.194;3.800;2022-09-02T01:34:07;9.35;;;2.88;;
22778;SDS011;11556;51.194;3.800;2022-09-02T01:36:36;6.97;;;2.70;;
22778;SDS011;11556;51.194;3.800;2022-09-02T01:39:02;6.80;;;3.00;;
22778;SDS011;11556;51.194;3.800;2022-09-02T01:41:28;7.32;;;3.08;;
22778;SDS011;11556;51.194;3.800;2022-09-02T01:43:54;5.43;;;2.95;;
22778;SDS011;11556;51.194;3.800;2022-09-02T01:46:20;6.35;;;3.30;;
22778;SDS011;11556;51.194;3.800;2022-09-02T01:48:47;6.85;;;2.92;;
22778;SDS011;11556;51.194;3.800;2022-09-02T01:51:15;7.90;;;2.85;;
22778;SDS011;11556;51.194;3.800;2022-09-02T01:53:43;6.90;;;2.90;;
22778;SDS011;11556;51.194;3.800;2022-09-02T01:56:09;6.78;;;2.92;;
22778;SDS011;11556;51.194;3.800;2022-09-02T01:58:35;7.43;;;2.75;;
22778;SDS011;11556;51.194;3.800;2022-09-02T02:01:01;4.55;;;2.75;;
22778;SDS011;11556;51.194;3.800;2022-09-02T02:03:27;5.10;;;3.03;;
22778;SDS011;11556;51.194;3.800;2022-09-02T02:05:53;6.40;;;3.03;;
22778;SDS011;11556;51.194;3.800;2022-09-02T02:08:19;11.07;;;3.33;;
22778;SDS011;11556;51.194;3.800;2022-09-02T02:10:45;6.50;;;3.20;;
22778;SDS011;11556;51.194;3.800;2022-09-02T02:13:11;7.70;;;3.20;;
22778;SDS011;11556;51.194;3.800;2022-09-02T02:15:37;5.35;;;2.97;;
22778;SDS011;11556;51.194;3.800;2022-09-02T02:18:04;10.55;;;3.60;;
22778;SDS011;11556;51.194;3.800;2022-09-02T02:20:30;6.45;;;3.33;;
22778;SDS011;11556;51.194;3.800;2022-09-02T02:22:55;7.22;;;3.55;;
22778;SDS011;11556;51.194;3.800;2022-09-02T02:25:21;10.80;;;2.97;;
22778;SDS011;11556;51.194;3.800;2022-09-02T02:27:46;8.05;;;3.22;;
22778;SDS011;11556;51.194;3.800;2022-09-02T02:30:13;5.15;;;3.63;;
22778;SDS011;11556;51.194;3.800;2022-09-02T02:32:40;12.63;;;3.65;;
22778;SDS011;11556;51.194;3.800;2022-09-02T02:35:07;9.20;;;3.72;;
22778;SDS011;11556;51.194;3.800;2022-09-02T02:37:33;9.75;;;3.72;;
22778;SDS011;11556;51.194;3.800;2022-09-02T02:39:59;7.72;;;3.30;;
22778;SDS011;11556;51.194;3.800;2022-09-02T02:42:25;12.00;;;3.70;;
22778;SDS011;11556;51.194;3.800;2022-09-02T02:44:50;8.57;;;3.90;;
22778;SDS011;11556;51.194;3.800;2022-09-02T02:47:16;11.45;;;3.70;;
22778;SDS011;11556;51.194;3.800;2022-09-02T02:49:42;10.43;;;3.95;;
22778;SDS011;11556;51.194;3.800;2022-09-02T02:52:09;7.72;;;4.00;;
22778;SDS011;11556;51.194;3.800;2022-09-02T02:54:36;7.28;;;3.88;;
22778;SDS011;11556;51.194;3.800;2022-09-02T02:57:03;8.95;;;4.05;;
22778;SDS011;11556;51.194;3.800;2022-09-02T02:59:29;9.40;;;4.03;;
22778;SDS011;11556;51.194;3.800;2022-09-02T03:01:56;6.85;;;4.28;;
22778;SDS011;11556;51.194;3.800;2022-09-02T03:04:21;8.43;;;4.32;;
22778;SDS011;11556;51.194;3.800;2022-09-02T03:06:48;8.45;;;4.10;;
22778;SDS011;11556;51.194;3.800;2022-09-02T03:09:15;5.50;;;3.33;;
22778;SDS011;11556;51.194;3.800;2022-09-02T03:11:41;12.05;;;4.03;;
22778;SDS011;11556;51.194;3.800;2022-09-02T03:14:06;8.07;;;4.35;;
22778;SDS011;11556;51.194;3.800;2022-09-02T03:16:33;8.18;;;4.50;;
22778;SDS011;11556;51.194;3.800;2022-09-02T03:19:00;8.52;;;4.00;;
22778;SDS011;11556;51.194;3.800;2022-09-02T03:21:26;8.30;;;4.50;;
22778;SDS011;11556;51.194;3.800;2022-09-02T03:23:52;9.93;;;4.13;;
22778;SDS011;11556;51.194;3.800;2022-09-02T03:26:19;8.20;;;3.97;;
22778;SDS011;11556;51.194;3.800;2022-09-02T03:28:46;6.30;;;4.07;;
22778;SDS011;11556;51.194;3.800;2022-09-02T03:31:14;7.60;;;4.63;;
22778;SDS011;11556;51.194;3.800;2022-09-02T03:33:42;7.85;;;4.38;;
22778;SDS011;11556;51.194;3.800;2022-09-02T03:36:08;7.47;;;4.35;;
22778;SDS011;11556;51.194;3.800;2022-09-02T03:38:43;7.18;;;4.35;;
22778;SDS011;11556;51.194;3.800;2022-09-02T03:41:08;6.15;;;4.38;;
22778;SDS011;11556;51.194;3.800;2022-09-02T03:43:34;5.38;;;4.20;;
22778;SDS011;11556;51.194;3.800;2022-09-02T03:45:59;6.57;;;4.43;;
22778;SDS011;11556;51.194;3.800;2022-09-02T03:48:25;10.10;;;4.90;;
22778;SDS011;11556;51.194;3.800;2022-09-02T03:50:53;10.80;;;4.90;;
22778;SDS011;11556;51.194;3.800;2022-09-02T03:53:18;10.25;;;4.95;;
22778;SDS011;11556;51.194;3.800;2022-09-02T03:55:44;8.02;;;5.00;;
22778;SDS011;11556;51.194;3.800;2022-09-02T03:58:10;14.27;;;5.60;;
22778;SDS011;11556;51.194;3.800;2022-09-02T04:00:36;9.10;;;4.68;;
22778;SDS011;11556;51.194;3.800;2022-09-02T04:03:02;7.25;;;4.68;;
22778;SDS011;11556;51.194;3.800;2022-09-02T04:05:28;9.23;;;5.03;;
22778;SDS011;11556;51.194;3.800;2022-09-02T04:07:54;9.75;;;4.75;;
22778;SDS011;11556;51.194;3.800;2022-09-02T04:10:20;9.88;;;5.20;;
22778;SDS011;11556;51.194;3.800;2022-09-02T04:12:46;7.97;;;5.15;;
22778;SDS011;11556;51.194;3.800;2022-09-02T04:15:13;7.88;;;5.40;;
22778;SDS011;11556;51.194;3.800;2022-09-02T04:17:39;18.02;;;6.15;;
22778;SDS011;11556;51.194;3.800;2022-09-02T04:20:06;9.80;;;4.70;;
22778;SDS011;11556;51.194;3.800;2022-09-02T04:22:33;11.85;;;5.68;;
22778;SDS011;11556;51.194;3.800;2022-09-02T04:24:59;6.13;;;4.75;;
22778;SDS011;11556;51.194;3.800;2022-09-02T04:27:25;8.77;;;5.60;;
22778;SDS011;11556;51.194;3.800;2022-09-02T04:29:51;8.30;;;5.45;;
22778;SDS011;11556;51.194;3.800;2022-09-02T04:32:16;7.88;;;5.78;;
22778;SDS011;11556;51.194;3.800;2022-09-02T04:34:43;7.68;;;5.28;;
22778;SDS011;11556;51.194;3.800;2022-09-02T04:37:09;19.15;;;6.45;;
22778;SDS011;11556;51.194;3.800;2022-09-02T04:39:37;9.68;;;6.00;;
22778;SDS011;11556;51.194;3.800;2022-09-02T04:42:03;8.50;;;5.70;;
22778;SDS011;11556;51.194;3.800;2022-09-02T04:44:29;10.40;;;5.50;;
22778;SDS011;11556;51.194;3.800;2022-09-02T04:46:55;9.40;;;6.22;;
22778;SDS011;11556;51.194;3.800;2022-09-02T04:49:20;7.90;;;6.60;;
22778;SDS011;11556;51.194;3.800;2022-09-02T04:51:46;11.13;;;6.25;;
22778;SDS011;11556;51.194;3.800;2022-09-02T04:54:12;11.63;;;6.60;;
22778;SDS011;11556;51.194;3.800;2022-09-02T04:56:37;15.25;;;5.85;;
22778;SDS011;11556;51.194;3.800;2022-09-02T04:59:03;12.95;;;6.35;;
22778;SDS011;11556;51.194;3.800;2022-09-02T05:01:30;11.35;;;6.38;;
22778;SDS011;11556;51.194;3.800;2022-09-02T05:03:57;14.00;;;6.75;;
22778;SDS011;11556;51.194;3.800;2022-09-02T05:06:24;13.30;;;7.05;;
22778;SDS011;11556;51.194;3.800;2022-09-02T05:08:52;19.45;;;7.70;;
22778;SDS011;11556;51.194;3.800;2022-09-02T05:11:21;10.85;;;7.10;;
22778;SDS011;11556;51.194;3.800;2022-09-02T05:13:54;14.32;;;6.45;;
22778;SDS011;11556;51.194;3.800;2022-09-02T05:16:23;10.25;;;6.88;;
22778;SDS011;11556;51.194;3.800;2022-09-02T05:18:51;11.48;;;6.40;;
22778;SDS011;11556;51.194;3.800;2022-09-02T05:21:18;12.90;;;6.45;;
22778;SDS011;11556;51.194;3.800;2022-09-02T05:23:45;12.35;;;7.00;;
22778;SDS011;11556;51.194;3.800;2022-09-02T05:26:11;14.00;;;7.35;;
22778;SDS011;11556;51.194;3.800;2022-09-02T05:28:37;15.07;;;7.30;;
22778;SDS011;11556;51.194;3.800;2022-09-02T05:31:14;12.48;;;6.97;;
22778;SDS011;11556;51.194;3.800;2022-09-02T05:33:41;19.80;;;8.35;;
22778;SDS011;11556;51.194;3.800;2022-09-02T05:36:09;17.02;;;7.70;;
22778;SDS011;11556;51.194;3.800;2022-09-02T05:38:37;15.48;;;7.22;;
22778;SDS011;11556;51.194;3.800;2022-09-02T05:41:04;13.25;;;6.63;;
22778;SDS011;11556;51.194;3.800;2022-09-02T05:43:35;18.13;;;6.90;;
22778;SDS011;11556;51.194;3.800;2022-09-02T05:46:03;11.68;;;6.78;;
22778;SDS011;11556;51.194;3.800;2022-09-02T05:48:33;14.68;;;6.97;;
22778;SDS011;11556;51.194;3.800;2022-09-02T05:51:18;11.00;;;6.93;;
22778;SDS011;11556;51.194;3.800;2022-09-02T05:53:43;12.88;;;7.20;;
22778;SDS011;11556;51.194;3.800;2022-09-02T05:56:09;13.77;;;6.97;;
22778;SDS011;11556;51.194;3.800;2022-09-02T05:58:35;22.08;;;7.60;;
22778;SDS011;11556;51.194;3.800;2022-09-02T06:01:08;11.57;;;6.60;;
22778;SDS011;11556;51.194;3.800;2022-09-02T06:03:35;13.43;;;7.07;;
22778;SDS011;11556;51.194;3.800;2022-09-02T06:06:01;16.25;;;8.27;;
22778;SDS011;11556;51.194;3.800;2022-09-02T06:08:27;12.48;;;7.10;;
22778;SDS011;11556;51.194;3.800;2022-09-02T06:10:53;14.80;;;6.82;;
22778;SDS011;11556;51.194;3.800;2022-09-02T06:13:19;15.95;;;7.38;;
22778;SDS011;11556;51.194;3.800;2022-09-02T06:15:46;12.52;;;6.82;;
22778;SDS011;11556;51.194;3.800;2022-09-02T06:18:14;17.55;;;7.63;;
22778;SDS011;11556;51.194;3.800;2022-09-02T06:20:41;18.60;;;6.97;;
22778;SDS011;11556;51.194;3.800;2022-09-02T06:23:10;14.18;;;6.63;;
22778;SDS011;11556;51.194;3.800;2022-09-02T06:25:38;14.23;;;7.18;;
22778;SDS011;11556;51.194;3.800;2022-09-02T06:28:05;13.75;;;7.38;;
22778;SDS011;11556;51.194;3.800;2022-09-02T06:30:31;15.32;;;6.90;;
22778;SDS011;11556;51.194;3.800;2022-09-02T06:32:57;15.13;;;6.03;;
22778;SDS011;11556;51.194;3.800;2022-09-02T06:35:22;15.05;;;6.78;;
22778;SDS011;11556;51.194;3.800;2022-09-02T06:37:48;10.50;;;5.55;;
22778;SDS011;11556;51.194;3.800;2022-09-02T06:40:14;12.13;;;5.35;;
22778;SDS011;11556;51.194;3.800;2022-09-02T06:42:40;9.35;;;5.40;;
22778;SDS011;11556;51.194;3.800;2022-09-02T06:45:06;10.75;;;5.50;;
22778;SDS011;11556;51.194;3.800;2022-09-02T06:47:32;16.25;;;6.15;;
22778;SDS011;11556;51.194;3.800;2022-09-02T06:49:58;14.63;;;5.63;;
22778;SDS011;11556;51.194;3.800;2022-09-02T06:52:24;12.63;;;5.10;;
22778;SDS011;11556;51.194;3.800;2022-09-02T06:54:50;9.52;;;4.82;;
22778;SDS011;11556;51.194;3.800;2022-09-02T06:57:19;10.57;;;5.43;;
22778;SDS011;11556;51.194;3.800;2022-09-02T06:59:45;11.60;;;5.03;;
22778;SDS011;11556;51.194;3.800;2022-09-02T07:02:11;9.18;;;4.82;;
22778;SDS011;11556;51.194;3.800;2022-09-02T07:04:38;10.80;;;5.22;;
22778;SDS011;11556;51.194;3.800;2022-09-02T07:07:38;9.82;;;5.07;;
22778;SDS011;11556;51.194;3.800;2022-09-02T07:10:05;7.85;;;5.00;;
22778;SDS011;11556;51.194;3.800;2022-09-02T07:12:36;12.43;;;4.97;;
22778;SDS011;11556;51.194;3.800;2022-09-02T07:15:03;11.90;;;5.03;;
22778;SDS011;11556;51.194;3.800;2022-09-02T07:17:29;12.70;;;5.20;;
22778;SDS011;11556;51.194;3.800;2022-09-02T07:19:55;10.88;;;4.70;;
22778;SDS011;11556;51.194;3.800;2022-09-02T07:22:23;12.90;;;5.03;;
22778;SDS011;11556;51.194;3.800;2022-09-02T07:24:50;7.78;;;4.47;;
22778;SDS011;11556;51.194;3.800;2022-09-02T07:27:15;11.27;;;4.18;;
22778;SDS011;11556;51.194;3.800;2022-09-02T07:29:41;13.30;;;4.10;;
22778;SDS011;11556;51.194;3.800;2022-09-02T07:32:08;8.52;;;4.28;;
22778;SDS011;11556;51.194;3.800;2022-09-02T07:34:34;9.95;;;4.03;;
22778;SDS011;11556;51.194;3.800;2022-09-02T07:37:00;7.18;;;4.20;;
22778;SDS011;11556;51.194;3.800;2022-09-02T07:39:26;9.63;;;3.92;;
22778;SDS011;11556;51.194;3.800;2022-09-02T07:41:51;7.60;;;3.70;;
22778;SDS011;11556;51.194;3.800;2022-09-02T07:44:18;10.85;;;3.85;;
22778;SDS011;11556;51.194;3.800;2022-09-02T07:46:45;9.57;;;3.60;;
22778;SDS011;11556;51.194;3.800;2022-09-02T07:49:11;5.53;;;3.55;;
22778;SDS011;11556;51.194;3.800;2022-09-02T07:51:39;7.35;;;3.50;;
22778;SDS011;11556;51.194;3.800;2022-09-02T07:54:06;6.30;;;3.17;;
22778;SDS011;11556;51.194;3.800;2022-09-02T07:56:33;4.47;;;3.47;;
22778;SDS011;11556;51.194;3.800;2022-09-02T07:58:58;7.93;;;3.67;;
22778;SDS011;11556;51.194;3.800;2022-09-02T08:01:24;6.50;;;2.90;;
22778;SDS011;11556;51.194;3.800;2022-09-02T08:03:50;5.43;;;3.63;;
22778;SDS011;11556;51.194;3.800;2022-09-02T08:06:17;9.20;;;3.22;;
22778;SDS011;11556;51.194;3.800;2022-09-02T08:08:44;8.95;;;3.90;;
22778;SDS011;11556;51.194;3.800;2022-09-02T08:11:10;8.05;;;3.65;;
22778;SDS011;11556;51.194;3.800;2022-09-02T08:13:36;11.35;;;3.88;;
22778;SDS011;11556;51.194;3.800;2022-09-02T08:16:03;12.70;;;3.92;;
22778;SDS011;11556;51.194;3.800;2022-09-02T08:18:29;11.23;;;3.90;;
22778;SDS011;11556;51.194;3.800;2022-09-02T08:20:54;8.77;;;3.58;;
22778;SDS011;11556;51.194;3.800;2022-09-02T08:23:20;10.40;;;3.65;;
22778;SDS011;11556;51.194;3.800;2022-09-02T08:25:45;11.55;;;3.47;;
22778;SDS011;11556;51.194;3.800;2022-09-02T08:28:11;8.68;;;3.78;;
22778;SDS011;11556;51.194;3.800;2022-09-02T08:30:37;13.98;;;3.30;;
22778;SDS011;11556;51.194;3.800;2022-09-02T08:33:03;7.53;;;3.63;;
22778;SDS011;11556;51.194;3.800;2022-09-02T08:35:29;8.55;;;3.50;;
22778;SDS011;11556;51.194;3.800;2022-09-02T08:37:56;8.20;;;3.60;;
22778;SDS011;11556;51.194;3.800;2022-09-02T08:40:22;9.13;;;3.30;;
22778;SDS011;11556;51.194;3.800;2022-09-02T08:42:54;8.48;;;3.42;;
22778;SDS011;11556;51.194;3.800;2022-09-02T08:47:58;5.93;;;3.50;;
22778;SDS011;11556;51.194;3.800;2022-09-02T08:50:40;10.00;;;3.55;;
22778;SDS011;11556;51.194;3.800;2022-09-02T08:53:12;7.53;;;3.85;;
22778;SDS011;11556;51.194;3.800;2022-09-02T08:55:44;5.55;;;3.20;;
22778;SDS011;11556;51.194;3.800;2022-09-02T09:00:41;7.75;;;3.47;;
22778;SDS011;11556;51.194;3.800;2022-09-02T09:03:17;7.28;;;3.45;;
22778;SDS011;11556;51.194;3.800;2022-09-02T09:06:08;9.55;;;3.67;;
22778;SDS011;11556;51.194;3.800;2022-09-02T09:16:40;8.45;;;3.08;;
22778;SDS011;11556;51.194;3.800;2022-09-02T09:21:56;11.45;;;3.72;;
22778;SDS011;11556;51.194;3.800;2022-09-02T09:24:29;5.23;;;3.43;;
22778;SDS011;11556;51.194;3.800;2022-09-02T09:27:07;10.57;;;3.30;;
22778;SDS011;11556;51.194;3.800;2022-09-02T09:29:44;23.67;;;4.13;;
22778;SDS011;11556;51.194;3.800;2022-09-02T09:37:39;6.40;;;3.03;;
22778;SDS011;11556;51.194;3.800;2022-09-02T09:40:39;7.47;;;2.67;;
22778;SDS011;11556;51.194;3.800;2022-09-02T09:43:10;10.45;;;3.28;;
22778;SDS011;11556;51.194;3.800;2022-09-02T09:50:45;6.55;;;2.75;;
22778;SDS011;11556;51.194;3.800;2022-09-02T09:53:13;7.18;;;2.65;;
22778;SDS011;11556;51.194;3.800;2022-09-02T09:56:03;7.50;;;2.80;;
22778;SDS011;11556;51.194;3.800;2022-09-02T09:58:32;6.18;;;2.67;;
22778;SDS011;11556;51.194;3.800;2022-09-02T10:01:21;5.40;;;2.53;;
22778;SDS011;11556;51.194;3.800;2022-09-02T10:08:58;7.30;;;2.60;;
22778;SDS011;11556;51.194;3.800;2022-09-02T10:11:26;3.17;;;2.42;;
22778;SDS011;11556;51.194;3.800;2022-09-02T10:14:03;4.10;;;2.65;;
22778;SDS011;11556;51.194;3.800;2022-09-02T10:22:06;9.13;;;2.40;;
22778;SDS011;11556;51.194;3.800;2022-09-02T10:24:59;6.30;;;2.30;;
22778;SDS011;11556;51.194;3.800;2022-09-02T10:30:40;10.05;;;2.40;;
22778;SDS011;11556;51.194;3.800;2022-09-02T10:33:20;2.88;;;2.10;;
22778;SDS011;11556;51.194;3.800;2022-09-02T10:36:10;3.17;;;2.30;;
22778;SDS011;11556;51.194;3.800;2022-09-02T10:38:52;5.03;;;2.50;;
22778;SDS011;11556;51.194;3.800;2022-09-02T10:47:32;2.90;;;2.45;;
22778;SDS011;11556;51.194;3.800;2022-09-02T10:52:46;3.13;;;2.20;;
22778;SDS011;11556;51.194;3.800;2022-09-02T10:55:26;5.88;;;2.35;;
22778;SDS011;11556;51.194;3.800;2022-09-02T10:58:05;5.88;;;2.13;;
22778;SDS011;11556;51.194;3.800;2022-09-02T11:00:39;1.70;;;1.60;;
22778;SDS011;11556;51.194;3.800;2022-09-02T11:03:12;2.17;;;1.85;;
22778;SDS011;11556;51.194;3.800;2022-09-02T11:05:53;7.97;;;2.20;;
22778;SDS011;11556;51.194;3.800;2022-09-02T11:08:33;6.45;;;2.30;;
22778;SDS011;11556;51.194;3.800;2022-09-02T11:14:24;3.80;;;1.83;;
22778;SDS011;11556;51.194;3.800;2022-09-02T11:16:59;2.67;;;2.35;;
22778;SDS011;11556;51.194;3.800;2022-09-02T11:19:32;4.35;;;2.13;;
22778;SDS011;11556;51.194;3.800;2022-09-02T11:32:34;3.47;;;2.03;;
22778;SDS011;11556;51.194;3.800;2022-09-02T11:35:08;2.75;;;2.10;;
22778;SDS011;11556;51.194;3.800;2022-09-02T11:37:43;4.05;;;1.70;;
22778;SDS011;11556;51.194;3.800;2022-09-02T11:40:25;5.70;;;2.08;;
22778;SDS011;11556;51.194;3.800;2022-09-02T11:53:59;2.97;;;2.00;;
22778;SDS011;11556;51.194;3.800;2022-09-02T11:56:28;3.00;;;1.83;;
22778;SDS011;11556;51.194;3.800;2022-09-02T11:59:00;4.00;;;2.15;;
22778;SDS011;11556;51.194;3.800;2022-09-02T12:01:27;5.78;;;2.00;;
22778;SDS011;11556;51.194;3.800;2022-09-02T12:06:30;2.97;;;2.28;;
22778;SDS011;11556;51.194;3.800;2022-09-02T12:08:57;5.38;;;1.90;;
22778;SDS011;11556;51.194;3.800;2022-09-02T12:11:33;3.60;;;2.15;;
22778;SDS011;11556;51.194;3.800;2022-09-02T12:14:06;4.88;;;1.92;;
22778;SDS011;11556;51.194;3.800;2022-09-02T12:17:05;2.00;;;1.67;;
22778;SDS011;11556;51.194;3.800;2022-09-02T12:19:39;2.88;;;1.98;;
22778;SDS011;11556;51.194;3.800;2022-09-02T12:27:34;3.35;;;2.30;;
22778;SDS011;11556;51.194;3.800;2022-09-02T12:30:02;6.05;;;2.03;;
22778;SDS011;11556;51.194;3.800;2022-09-02T12:35:13;2.83;;;1.88;;
22778;SDS011;11556;51.194;3.800;2022-09-02T12:57:40;5.65;;;2.05;;
22778;SDS011;11556;51.194;3.800;2022-09-02T13:06:00;5.28;;;2.08;;
22778;SDS011;11556;51.194;3.800;2022-09-02T13:14:51;4.60;;;2.05;;
22778;SDS011;11556;51.194;3.800;2022-09-02T13:23:26;5.70;;;2.08;;
22778;SDS011;11556;51.194;3.800;2022-09-02T13:26:15;3.35;;;2.28;;
22778;SDS011;11556;51.194;3.800;2022-09-02T13:32:20;4.43;;;2.15;;
22778;SDS011;11556;51.194;3.800;2022-09-02T13:34:48;5.25;;;2.50;;
22778;SDS011;11556;51.194;3.800;2022-09-02T13:40:08;2.03;;;1.90;;
22778;SDS011;11556;51.194;3.800;2022-09-02T13:42:52;3.65;;;1.63;;
22778;SDS011;11556;51.194;3.800;2022-09-02T13:47:53;7.38;;;1.75;;
22778;SDS011;11556;51.194;3.800;2022-09-02T13:52:59;5.28;;;1.65;;
22778;SDS011;11556;51.194;3.800;2022-09-02T13:55:26;3.40;;;1.90;;
22778;SDS011;11556;51.194;3.800;2022-09-02T14:00:28;5.78;;;1.80;;
22778;SDS011;11556;51.194;3.800;2022-09-02T14:02:56;4.30;;;1.88;;
22778;SDS011;11556;51.194;3.800;2022-09-02T14:05:23;3.55;;;1.70;;
22778;SDS011;11556;51.194;3.800;2022-09-02T14:07:53;4.45;;;1.77;;
22778;SDS011;11556;51.194;3.800;2022-09-02T14:10:22;6.28;;;1.60;;
22778;SDS011;11556;51.194;3.800;2022-09-02T14:12:51;6.10;;;1.60;;
22778;SDS011;11556;51.194;3.800;2022-09-02T14:15:22;6.43;;;1.70;;
22778;SDS011;11556;51.194;3.800;2022-09-02T14:18:06;4.22;;;1.67;;
22778;SDS011;11556;51.194;3.800;2022-09-02T14:20:37;5.07;;;1.52;;
22778;SDS011;11556;51.194;3.800;2022-09-02T14:23:04;5.95;;;1.70;;
22778;SDS011;11556;51.194;3.800;2022-09-02T14:25:32;2.72;;;1.30;;
22778;SDS011;11556;51.194;3.800;2022-09-02T14:28:01;1.73;;;1.63;;
22778;SDS011;11556;51.194;3.800;2022-09-02T14:30:34;3.05;;;1.55;;
22778;SDS011;11556;51.194;3.800;2022-09-02T14:33:17;6.00;;;1.60;;
22778;SDS011;11556;51.194;3.800;2022-09-02T14:38:35;5.22;;;1.75;;
22778;SDS011;11556;51.194;3.800;2022-09-02T14:43:45;4.97;;;1.58;;
22778;SDS011;11556;51.194;3.800;2022-09-02T14:49:10;2.00;;;1.67;;
22778;SDS011;11556;51.194;3.800;2022-09-02T14:51:50;1.58;;;1.40;;
22778;SDS011;11556;51.194;3.800;2022-09-02T14:59:44;3.53;;;1.80;;
22778;SDS011;11556;51.194;3.800;2022-09-02T15:02:19;2.97;;;1.60;;
22778;SDS011;11556;51.194;3.800;2022-09-02T15:04:52;1.77;;;1.60;;
22778;SDS011;11556;51.194;3.800;2022-09-02T15:07:18;1.50;;;1.33;;
22778;SDS011;11556;51.194;3.800;2022-09-02T15:09:43;7.20;;;1.42;;
22778;SDS011;11556;51.194;3.800;2022-09-02T15:12:11;3.08;;;1.25;;
22778;SDS011;11556;51.194;3.800;2022-09-02T15:14:38;4.00;;;1.35;;
22778;SDS011;11556;51.194;3.800;2022-09-02T15:17:08;5.65;;;1.45;;
22778;SDS011;11556;51.194;3.800;2022-09-02T15:19:35;2.08;;;1.63;;
22778;SDS011;11556;51.194;3.800;2022-09-02T15:22:01;4.43;;;1.67;;
22778;SDS011;11556;51.194;3.800;2022-09-02T15:24:27;3.78;;;2.42;;
22778;SDS011;11556;51.194;3.800;2022-09-02T15:26:52;4.93;;;1.90;;
22778;SDS011;11556;51.194;3.800;2022-09-02T15:29:18;3.28;;;1.90;;
22778;SDS011;11556;51.194;3.800;2022-09-02T15:31:44;5.53;;;1.65;;
22778;SDS011;11556;51.194;3.800;2022-09-02T15:34:10;6.60;;;1.90;;
22778;SDS011;11556;51.194;3.800;2022-09-02T15:36:36;2.65;;;1.50;;
22778;SDS011;11556;51.194;3.800;2022-09-02T15:39:02;4.20;;;2.30;;
22778;SDS011;11556;51.194;3.800;2022-09-02T15:41:28;6.00;;;2.00;;
22778;SDS011;11556;51.194;3.800;2022-09-02T15:43:55;3.60;;;1.85;;
22778;SDS011;11556;51.194;3.800;2022-09-02T15:46:27;2.92;;;1.92;;
22778;SDS011;11556;51.194;3.800;2022-09-02T15:48:54;5.47;;;1.90;;
22778;SDS011;11556;51.194;3.800;2022-09-02T15:51:24;2.33;;;1.70;;
22778;SDS011;11556;51.194;3.800;2022-09-02T15:53:58;2.53;;;1.63;;
22778;SDS011;11556;51.194;3.800;2022-09-02T15:56:27;2.30;;;1.70;;
22778;SDS011;11556;51.194;3.800;2022-09-02T15:58:54;3.90;;;1.88;;
22778;SDS011;11556;51.194;3.800;2022-09-02T16:01:31;2.40;;;1.58;;
22778;SDS011;11556;51.194;3.800;2022-09-02T16:03:58;4.00;;;1.98;;
22778;SDS011;11556;51.194;3.800;2022-09-02T16:06:28;3.58;;;2.00;;
22778;SDS011;11556;51.194;3.800;2022-09-02T16:08:54;4.10;;;2.10;;
22778;SDS011;11556;51.194;3.800;2022-09-02T16:11:20;8.40;;;2.15;;
22778;SDS011;11556;51.194;3.800;2022-09-02T16:13:46;5.57;;;1.92;;
22778;SDS011;11556;51.194;3.800;2022-09-02T16:16:12;1.85;;;1.75;;
22778;SDS011;11556;51.194;3.800;2022-09-02T16:18:38;4.20;;;1.80;;
22778;SDS011;11556;51.194;3.800;2022-09-02T16:21:05;3.10;;;1.48;;
22778;SDS011;11556;51.194;3.800;2022-09-02T16:23:32;4.43;;;1.42;;
22778;SDS011;11556;51.194;3.800;2022-09-02T16:28:57;3.35;;;1.58;;
22778;SDS011;11556;51.194;3.800;2022-09-02T16:31:28;5.20;;;1.60;;
22778;SDS011;11556;51.194;3.800;2022-09-02T16:33:56;3.88;;;1.58;;
22778;SDS011;11556;51.194;3.800;2022-09-02T16:36:31;2.83;;;1.50;;
22778;SDS011;11556;51.194;3.800;2022-09-02T16:38:59;5.38;;;2.83;;
22778;SDS011;11556;51.194;3.800;2022-09-02T16:43:58;7.00;;;3.05;;
22778;SDS011;11556;51.194;3.800;2022-09-02T16:46:25;8.55;;;2.80;;
22778;SDS011;11556;51.194;3.800;2022-09-02T16:48:52;7.75;;;3.10;;
22778;SDS011;11556;51.194;3.800;2022-09-02T16:51:21;7.05;;;2.90;;
22778;SDS011;11556;51.194;3.800;2022-09-02T16:53:51;7.78;;;2.83;;
22778;SDS011;11556;51.194;3.800;2022-09-02T16:56:18;16.67;;;3.30;;
22778;SDS011;11556;51.194;3.800;2022-09-02T16:58:45;7.90;;;3.05;;
22778;SDS011;11556;51.194;3.800;2022-09-02T17:01:11;9.85;;;3.20;;
22778;SDS011;11556;51.194;3.800;2022-09-02T17:03:37;6.78;;;3.30;;
22778;SDS011;11556;51.194;3.800;2022-09-02T17:06:04;3.92;;;3.17;;
22778;SDS011;11556;51.194;3.800;2022-09-02T17:08:30;3.33;;;2.90;;
22778;SDS011;11556;51.194;3.800;2022-09-02T17:13:58;10.23;;;3.42;;
22778;SDS011;11556;51.194;3.800;2022-09-02T17:16:32;6.43;;;3.10;;
22778;SDS011;11556;51.194;3.800;2022-09-02T17:18:59;5.90;;;2.88;;
22778;SDS011;11556;51.194;3.800;2022-09-02T17:21:30;13.02;;;3.30;;
22778;SDS011;11556;51.194;3.800;2022-09-02T17:23:59;9.60;;;3.45;;
22778;SDS011;11556;51.194;3.800;2022-09-02T17:26:26;10.10;;;3.92;;
22778;SDS011;11556;51.194;3.800;2022-09-02T17:28:53;11.48;;;3.20;;
22778;SDS011;11556;51.194;3.800;2022-09-02T17:33:55;13.02;;;3.30;;
22778;SDS011;11556;51.194;3.800;2022-09-02T17:36:22;8.27;;;2.95;;
22778;SDS011;11556;51.194;3.800;2022-09-02T17:38:56;17.70;;;3.30;;